sensor_id;sensor_type;location;lat;lon;timestamp;pressure;altitude;pressure_sealevel;temperature;humidity
50550;BME280;36505;52.512;13.460;2022-12-29T00:02:11;100173.72;;;7.22;86.14
50550;BME280;36505;52.512;13.460;2022-12-29T00:04:37;100177.25;;;7.23;85.71
50550;BME280;36505;52.512;13.460;2022-12-29T00:07:03;100166.81;;;7.20;85.91
50550;BME280;36505;52.512;13.460;2022-12-29T00:09:32;100157.22;;;7.17;85.97
50550;BME280;36505;52.512;13.460;2022-12-29T00:11:58;100159.50;;;7.20;85.93
50550;BME280;36505;52.512;13.460;2022-12-29T00:14:23;100159.25;;;7.22;86.02
50550;BME280;36505;52.512;13.460;2022-12-29T00:17:07;100155.22;;;7.24;85.36
50550;BME280;36505;52.512;13.460;2022-12-29T00:19:33;100160.31;;;7.21;85.08
50550;BME280;36505;52.512;13.460;2022-12-29T00:22:17;100155.81;;;7.26;84.71
50550;BME280;36505;52.512;13.460;2022-12-29T00:25:01;100149.53;;;7.26;84.94
50550;BME280;36505;52.512;13.460;2022-12-29T00:27:45;100156.41;;;7.28;84.75
50550;BME280;36505;52.512;13.460;2022-12-29T00:30:29;100153.81;;;7.33;84.95
50550;BME280;36505;52.512;13.460;2022-12-29T00:33:18;100157.97;;;7.36;84.63
50550;BME280;36505;52.512;13.460;2022-12-29T00:38:32;100142.06;;;7.33;84.29
50550;BME280;36505;52.512;13.460;2022-12-29T00:41:19;100146.47;;;7.34;84.13
50550;BME280;36505;52.512;13.460;2022-12-29T00:44:03;100140.19;;;7.33;84.29
50550;BME280;36505;52.512;13.460;2022-12-29T00:46:35;100138.63;;;7.37;83.94
50550;BME280;36505;52.512;13.460;2022-12-29T00:49:01;100124.56;;;7.29;83.74
50550;BME280;36505;52.512;13.460;2022-12-29T00:51:46;100133.78;;;7.39;83.26
50550;BME280;36505;52.512;13.460;2022-12-29T00:54:12;100134.00;;;7.38;83.60
50550;BME280;36505;52.512;13.460;2022-12-29T00:56:38;100126.56;;;7.33;83.59
50550;BME280;36505;52.512;13.460;2022-12-29T00:59:06;100128.00;;;7.36;83.71
50550;BME280;36505;52.512;13.460;2022-12-29T01:01:32;100130.00;;;7.40;83.52
50550;BME280;36505;52.512;13.460;2022-12-29T01:03:58;100126.22;;;7.41;83.57
50550;BME280;36505;52.512;13.460;2022-12-29T01:06:23;100129.53;;;7.43;84.13
50550;BME280;36505;52.512;13.460;2022-12-29T01:08:49;100118.63;;;7.43;83.74
50550;BME280;36505;52.512;13.460;2022-12-29T01:11:35;100118.63;;;7.43;84.07
50550;BME280;36505;52.512;13.460;2022-12-29T01:14:00;100121.09;;;7.45;83.96
50550;BME280;36505;52.512;13.460;2022-12-29T01:16:26;100125.72;;;7.44;84.08
50550;BME280;36505;52.512;13.460;2022-12-29T01:18:51;100125.97;;;7.43;83.84
50550;BME280;36505;52.512;13.460;2022-12-29T01:21:16;100126.22;;;7.41;83.65
50550;BME280;36505;52.512;13.460;2022-12-29T01:23:42;100126.91;;;7.48;83.90
50550;BME280;36505;52.512;13.460;2022-12-29T01:26:11;100120.88;;;7.46;83.91
50550;BME280;36505;52.512;13.460;2022-12-29T01:28:37;100112.00;;;7.39;83.87
50550;BME280;36505;52.512;13.460;2022-12-29T01:31:08;100119.44;;;7.44;83.10
50550;BME280;36505;52.512;13.460;2022-12-29T01:33:34;100128.81;;;7.48;83.57
50550;BME280;36505;52.512;13.460;2022-12-29T01:36:04;100114.59;;;7.46;83.47
50550;BME280;36505;52.512;13.460;2022-12-29T01:38:31;100119.91;;;7.52;83.83
50550;BME280;36505;52.512;13.460;2022-12-29T01:40:56;100101.78;;;7.46;83.81
50550;BME280;36505;52.512;13.460;2022-12-29T01:43:51;100111.97;;;7.51;83.75
50550;BME280;36505;52.512;13.460;2022-12-29T01:46:31;100116.00;;;7.48;84.30
50550;BME280;36505;52.512;13.460;2022-12-29T01:51:35;100108.69;;;7.49;84.44
50550;BME280;36505;52.512;13.460;2022-12-29T01:54:05;100114.94;;;7.49;84.71
50550;BME280;36505;52.512;13.460;2022-12-29T01:56:32;100109.13;;;7.46;84.55
50550;BME280;36505;52.512;13.460;2022-12-29T01:59:04;100107.75;;;7.43;84.77
50550;BME280;36505;52.512;13.460;2022-12-29T02:01:31;100103.69;;;7.46;84.86
50550;BME280;36505;52.512;13.460;2022-12-29T02:03:58;100091.63;;;7.42;85.33
50550;BME280;36505;52.512;13.460;2022-12-29T02:06:27;100090.19;;;7.39;85.60
50550;BME280;36505;52.512;13.460;2022-12-29T02:08:55;100081.69;;;7.36;86.36
50550;BME280;36505;52.512;13.460;2022-12-29T02:11:23;100084.41;;;7.36;86.36
50550;BME280;36505;52.512;13.460;2022-12-29T02:13:50;100090.94;;;7.35;85.77
50550;BME280;36505;52.512;13.460;2022-12-29T02:35:35;100066.19;;;7.36;86.06
50550;BME280;36505;52.512;13.460;2022-12-29T02:38:39;100055.06;;;7.26;85.41
50550;BME280;36505;52.512;13.460;2022-12-29T02:41:08;100059.06;;;7.35;85.02
50550;BME280;36505;52.512;13.460;2022-12-29T02:43:38;100059.63;;;7.37;85.34
50550;BME280;36505;52.512;13.460;2022-12-29T02:46:21;100054.19;;;7.37;85.14
50550;BME280;36505;52.512;13.460;2022-12-29T02:48:59;100061.06;;;7.40;84.84
50550;BME280;36505;52.512;13.460;2022-12-29T02:52:07;100052.16;;;7.44;83.50
50550;BME280;36505;52.512;13.460;2022-12-29T02:54:35;100055.72;;;7.45;83.43
50550;BME280;36505;52.512;13.460;2022-12-29T02:57:14;100060.34;;;7.44;83.49
50550;BME280;36505;52.512;13.460;2022-12-29T02:59:42;100049.44;;;7.44;83.17
50550;BME280;36505;52.512;13.460;2022-12-29T03:02:28;100050.41;;;7.50;82.65
50550;BME280;36505;52.512;13.460;2022-12-29T03:11:00;100038.88;;;7.60;82.01
50550;BME280;36505;52.512;13.460;2022-12-29T03:16:39;100023.34;;;7.60;80.65
50550;BME280;36505;52.512;13.460;2022-12-29T03:21:42;100028.88;;;7.77;80.36
50550;BME280;36505;52.512;13.460;2022-12-29T03:24:30;100019.25;;;7.74;80.10
50550;BME280;36505;52.512;13.460;2022-12-29T03:26:59;100028.13;;;7.81;79.98
50550;BME280;36505;52.512;13.460;2022-12-29T03:29:28;100027.88;;;7.83;80.21
50550;BME280;36505;52.512;13.460;2022-12-29T03:31:55;100024.94;;;7.84;80.08
50550;BME280;36505;52.512;13.460;2022-12-29T03:34:22;100020.78;;;7.82;80.30
50550;BME280;36505;52.512;13.460;2022-12-29T03:36:57;100033.19;;;7.89;80.19
50550;BME280;36505;52.512;13.460;2022-12-29T03:39:25;100028.88;;;7.93;79.69
50550;BME280;36505;52.512;13.460;2022-12-29T03:41:56;100018.34;;;7.97;79.45
50550;BME280;36505;52.512;13.460;2022-12-29T03:44:32;100009.91;;;7.99;79.28
50550;BME280;36505;52.512;13.460;2022-12-29T03:46:58;100006.69;;;8.02;79.10
50550;BME280;36505;52.512;13.460;2022-12-29T03:49:23;100003.72;;;8.03;78.76
50550;BME280;36505;52.512;13.460;2022-12-29T03:51:48;100008.09;;;8.04;78.67
50550;BME280;36505;52.512;13.460;2022-12-29T03:54:14;100011.41;;;8.06;79.02
50550;BME280;36505;52.512;13.460;2022-12-29T03:56:39;100007.28;;;8.04;79.14
50550;BME280;36505;52.512;13.460;2022-12-29T03:59:04;100007.28;;;8.04;78.98
50550;BME280;36505;52.512;13.460;2022-12-29T04:01:30;100011.75;;;8.10;79.09
50550;BME280;36505;52.512;13.460;2022-12-29T04:03:55;100019.19;;;8.14;78.92
50550;BME280;36505;52.512;13.460;2022-12-29T04:06:20;100019.41;;;8.13;79.11
50550;BME280;36505;52.512;13.460;2022-12-29T04:08:46;100008.28;;;8.14;79.09
50550;BME280;36505;52.512;13.460;2022-12-29T04:11:11;100009.94;;;8.15;79.31
50550;BME280;36505;52.512;13.460;2022-12-29T04:13:36;100018.69;;;8.17;79.02
50550;BME280;36505;52.512;13.460;2022-12-29T04:16:06;100012.19;;;8.18;78.77
50550;BME280;36505;52.512;13.460;2022-12-29T04:18:32;100019.25;;;8.19;79.28
50550;BME280;36505;52.512;13.460;2022-12-29T04:20:57;100005.38;;;8.21;78.79
50550;BME280;36505;52.512;13.460;2022-12-29T04:23:29;100008.94;;;8.21;79.13
50550;BME280;36505;52.512;13.460;2022-12-29T04:25:55;100012.50;;;8.22;79.33
50550;BME280;36505;52.512;13.460;2022-12-29T04:28:21;100019.94;;;8.26;79.14
50550;BME280;36505;52.512;13.460;2022-12-29T04:30:47;100019.94;;;8.26;79.08
50550;BME280;36505;52.512;13.460;2022-12-29T04:33:13;100008.47;;;8.24;78.64
50550;BME280;36505;52.512;13.460;2022-12-29T04:35:39;100011.50;;;8.28;79.13
50550;BME280;36505;52.512;13.460;2022-12-29T04:38:04;100009.16;;;8.31;78.50
50550;BME280;36505;52.512;13.460;2022-12-29T04:40:30;100001.81;;;8.32;78.80
50550;BME280;36505;52.512;13.460;2022-12-29T04:42:55;100007.50;;;8.30;78.60
50550;BME280;36505;52.512;13.460;2022-12-29T04:45:23;99982.25;;;8.23;78.72
50550;BME280;36505;52.512;13.460;2022-12-29T04:47:48;99996.22;;;8.27;79.03
50550;BME280;36505;52.512;13.460;2022-12-29T04:50:14;100000.34;;;8.29;78.63
50550;BME280;36505;52.512;13.460;2022-12-29T04:52:39;99992.16;;;8.29;78.84
50550;BME280;36505;52.512;13.460;2022-12-29T04:55:05;99994.41;;;8.32;79.01
50550;BME280;36505;52.512;13.460;2022-12-29T04:57:30;99984.09;;;8.35;78.74
50550;BME280;36505;52.512;13.460;2022-12-29T04:59:56;99983.50;;;8.32;78.72
50550;BME280;36505;52.512;13.460;2022-12-29T05:02:21;99974.25;;;8.33;78.39
50550;BME280;36505;52.512;13.460;2022-12-29T05:04:47;99976.50;;;8.37;78.48
50550;BME280;36505;52.512;13.460;2022-12-29T05:07:13;99986.00;;;8.34;78.79
50550;BME280;36505;52.512;13.460;2022-12-29T05:09:39;99986.34;;;8.38;78.77
50550;BME280;36505;52.512;13.460;2022-12-29T05:12:04;99973.91;;;8.30;79.22
50550;BME280;36505;52.512;13.460;2022-12-29T05:14:30;99986.59;;;8.36;79.02
50550;BME280;36505;52.512;13.460;2022-12-29T05:16:55;99969.47;;;8.41;78.62
50550;BME280;36505;52.512;13.460;2022-12-29T05:19:21;99973.25;;;8.40;79.06
50550;BME280;36505;52.512;13.460;2022-12-29T05:21:46;99964.84;;;8.41;78.99
50550;BME280;36505;52.512;13.460;2022-12-29T05:24:11;99956.41;;;8.43;79.27
50550;BME280;36505;52.512;13.460;2022-12-29T05:26:37;99962.16;;;8.46;79.26
50550;BME280;36505;52.512;13.460;2022-12-29T05:29:02;99954.50;;;8.43;78.92
50550;BME280;36505;52.512;13.460;2022-12-29T05:31:28;99955.41;;;8.49;79.03
50550;BME280;36505;52.512;13.460;2022-12-29T05:33:53;99946.97;;;8.50;78.80
50550;BME280;36505;52.512;13.460;2022-12-29T05:36:19;99940.44;;;8.51;79.15
50550;BME280;36505;52.512;13.460;2022-12-29T05:38:44;99946.22;;;8.55;79.15
50550;BME280;36505;52.512;13.460;2022-12-29T05:41:10;99943.19;;;8.51;79.36
50550;BME280;36505;52.512;13.460;2022-12-29T05:43:36;99932.56;;;8.55;79.41
50550;BME280;36505;52.512;13.460;2022-12-29T05:46:02;99938.38;;;8.58;79.21
50550;BME280;36505;52.512;13.460;2022-12-29T05:48:28;99943.81;;;8.58;79.31
50550;BME280;36505;52.512;13.460;2022-12-29T05:50:53;99943.81;;;8.58;79.33
50550;BME280;36505;52.512;13.460;2022-12-29T05:53:19;99946.38;;;8.65;79.19
50550;BME280;36505;52.512;13.460;2022-12-29T05:55:46;99943.72;;;8.70;79.18
50550;BME280;36505;52.512;13.460;2022-12-29T05:58:12;99940.50;;;8.73;79.08
50550;BME280;36505;52.512;13.460;2022-12-29T06:00:38;99930.13;;;8.75;79.14
50550;BME280;36505;52.512;13.460;2022-12-29T06:03:03;99920.56;;;8.73;79.13
50550;BME280;36505;52.512;13.460;2022-12-29T06:05:29;99933.50;;;8.82;78.87
50550;BME280;36505;52.512;13.460;2022-12-29T06:07:54;99928.81;;;8.78;79.11
50550;BME280;36505;52.512;13.460;2022-12-29T06:10:20;99928.03;;;8.82;79.11
50550;BME280;36505;52.512;13.460;2022-12-29T06:12:45;99920.09;;;8.81;79.21
50550;BME280;36505;52.512;13.460;2022-12-29T06:15:12;99928.09;;;8.87;79.33
50550;BME280;36505;52.512;13.460;2022-12-29T06:17:37;99932.56;;;8.93;79.41
50550;BME280;36505;52.512;13.460;2022-12-29T06:20:03;99928.75;;;8.94;79.14
50550;BME280;36505;52.512;13.460;2022-12-29T06:22:29;99927.13;;;8.93;78.97
50550;BME280;36505;52.512;13.460;2022-12-29T06:24:54;99936.44;;;8.97;78.86
50550;BME280;36505;52.512;13.460;2022-12-29T06:27:20;99934.34;;;9.04;78.58
50550;BME280;36505;52.512;13.460;2022-12-29T06:29:45;99936.25;;;9.04;78.62
50550;BME280;36505;52.512;13.460;2022-12-29T06:32:11;99927.81;;;9.05;78.53
50550;BME280;36505;52.512;13.460;2022-12-29T06:34:37;99932.19;;;9.06;78.78
50550;BME280;36505;52.512;13.460;2022-12-29T06:37:02;99936.59;;;9.07;78.58
50550;BME280;36505;52.512;13.460;2022-12-29T06:39:28;99932.25;;;9.11;78.45
50550;BME280;36505;52.512;13.460;2022-12-29T06:41:54;99943.19;;;9.11;78.28
50550;BME280;36505;52.512;13.460;2022-12-29T06:44:22;99951.63;;;9.10;78.48
50550;BME280;36505;52.512;13.460;2022-12-29T06:46:47;99949.41;;;9.07;78.56
50550;BME280;36505;52.512;13.460;2022-12-29T06:49:13;99948.63;;;9.11;78.52
50550;BME280;36505;52.512;13.460;2022-12-29T06:51:39;99948.63;;;9.11;78.79
50550;BME280;36505;52.512;13.460;2022-12-29T06:54:04;99944.59;;;9.14;78.53
50550;BME280;36505;52.512;13.460;2022-12-29T06:56:30;99947.03;;;9.16;78.50
50550;BME280;36505;52.512;13.460;2022-12-29T06:58:55;99957.13;;;9.15;78.54
50550;BME280;36505;52.512;13.460;2022-12-29T07:01:20;99969.16;;;9.14;78.82
50550;BME280;36505;52.512;13.460;2022-12-29T07:03:46;99958.25;;;9.14;78.85
50550;BME280;36505;52.512;13.460;2022-12-29T07:06:11;99967.75;;;9.11;78.87
50550;BME280;36505;52.512;13.460;2022-12-29T07:08:37;99960.06;;;9.08;79.01
50550;BME280;36505;52.512;13.460;2022-12-29T07:11:03;99960.56;;;9.05;79.02
50550;BME280;36505;52.512;13.460;2022-12-29T07:13:29;99957.03;;;9.05;79.19
50550;BME280;36505;52.512;13.460;2022-12-29T07:15:54;99953.72;;;9.03;78.98
50550;BME280;36505;52.512;13.460;2022-12-29T07:18:19;99962.97;;;9.02;79.24
50550;BME280;36505;52.512;13.460;2022-12-29T07:20:45;99964.31;;;8.99;79.41
50550;BME280;36505;52.512;13.460;2022-12-29T07:23:10;99962.09;;;8.96;79.41
50550;BME280;36505;52.512;13.460;2022-12-29T07:25:35;99961.50;;;8.94;79.78
50550;BME280;36505;52.512;13.460;2022-12-29T07:28:02;99952.75;;;8.92;79.67
50550;BME280;36505;52.512;13.460;2022-12-29T07:30:27;99962.66;;;8.98;79.54
50550;BME280;36505;52.512;13.460;2022-12-29T07:32:53;99958.09;;;9.04;79.42
50550;BME280;36505;52.512;13.460;2022-12-29T07:35:18;99953.22;;;9.06;79.40
50550;BME280;36505;52.512;13.460;2022-12-29T07:37:44;99946.94;;;9.05;79.41
50550;BME280;36505;52.512;13.460;2022-12-29T07:40:10;99941.75;;;9.09;79.41
50550;BME280;36505;52.512;13.460;2022-12-29T07:42:35;99946.72;;;9.12;79.39
50550;BME280;36505;52.512;13.460;2022-12-29T07:45:01;99947.56;;;9.13;79.25
50550;BME280;36505;52.512;13.460;2022-12-29T07:47:26;99951.75;;;9.20;78.99
50550;BME280;36505;52.512;13.460;2022-12-29T07:49:52;99949.91;;;9.26;78.93
50550;BME280;36505;52.512;13.460;2022-12-29T07:52:17;99948.06;;;9.31;78.90
50550;BME280;36505;52.512;13.460;2022-12-29T07:54:43;99952.19;;;9.34;78.67
50550;BME280;36505;52.512;13.460;2022-12-29T07:57:08;99937.94;;;9.32;78.56
50550;BME280;36505;52.512;13.460;2022-12-29T07:59:33;99945.75;;;9.45;78.36
50550;BME280;36505;52.512;13.460;2022-12-29T08:01:59;99953.13;;;9.44;78.50
50550;BME280;36505;52.512;13.460;2022-12-29T08:04:24;99958.38;;;9.51;78.23
50550;BME280;36505;52.512;13.460;2022-12-29T08:06:49;99962.81;;;9.57;78.14
50550;BME280;36505;52.512;13.460;2022-12-29T08:09:15;99950.25;;;9.56;78.09
50550;BME280;36505;52.512;13.460;2022-12-29T08:11:41;99960.09;;;9.57;77.95
50550;BME280;36505;52.512;13.460;2022-12-29T08:14:07;99947.00;;;9.59;77.90
50550;BME280;36505;52.512;13.460;2022-12-29T08:16:33;99961.75;;;9.58;77.60
50550;BME280;36505;52.512;13.460;2022-12-29T08:18:58;99934.94;;;9.55;77.32
50550;BME280;36505;52.512;13.460;2022-12-29T08:21:24;99939.63;;;9.60;77.20
50550;BME280;36505;52.512;13.460;2022-12-29T08:23:49;99944.84;;;9.61;77.51
50550;BME280;36505;52.512;13.460;2022-12-29T08:26:15;99946.22;;;9.64;77.45
50550;BME280;36505;52.512;13.460;2022-12-29T08:28:40;99950.84;;;9.63;77.61
50550;BME280;36505;52.512;13.460;2022-12-29T08:31:05;99953.88;;;9.62;77.67
50550;BME280;36505;52.512;13.460;2022-12-29T08:33:31;99938.84;;;9.64;77.22
50550;BME280;36505;52.512;13.460;2022-12-29T08:36:01;99956.31;;;9.63;77.55
50550;BME280;36505;52.512;13.460;2022-12-29T08:38:27;99950.34;;;9.66;77.62
50550;BME280;36505;52.512;13.460;2022-12-29T08:40:53;99948.19;;;9.68;77.44
50550;BME280;36505;52.512;13.460;2022-12-29T08:43:19;99935.63;;;9.67;77.29
50550;BME280;36505;52.512;13.460;2022-12-29T08:45:44;99938.03;;;9.64;77.52
50550;BME280;36505;52.512;13.460;2022-12-29T08:48:09;99939.69;;;9.65;77.72
50550;BME280;36505;52.512;13.460;2022-12-29T08:50:35;99955.81;;;9.66;77.59
50550;BME280;36505;52.512;13.460;2022-12-29T08:53:00;99955.00;;;9.66;77.50
50550;BME280;36505;52.512;13.460;2022-12-29T08:55:26;99953.34;;;9.65;77.20
50550;BME280;36505;52.512;13.460;2022-12-29T08:57:51;99957.97;;;9.64;77.61
50550;BME280;36505;52.512;13.460;2022-12-29T09:00:17;99949.03;;;9.69;77.52
50550;BME280;36505;52.512;13.460;2022-12-29T09:02:43;99946.53;;;9.67;77.16
50550;BME280;36505;52.512;13.460;2022-12-29T09:05:08;99936.72;;;9.71;77.38
50550;BME280;36505;52.512;13.460;2022-12-29T09:07:35;99943.69;;;9.84;77.07
50550;BME280;36505;52.512;13.460;2022-12-29T09:10:00;99948.94;;;9.90;76.76
50550;BME280;36505;52.512;13.460;2022-12-29T09:12:25;99947.66;;;9.98;76.52
50550;BME280;36505;52.512;13.460;2022-12-29T09:14:51;99932.16;;;10.09;76.27
50550;BME280;36505;52.512;13.460;2022-12-29T09:17:16;99938.47;;;10.09;75.79
50550;BME280;36505;52.512;13.460;2022-12-29T09:20:00;99945.69;;;10.20;75.50
50550;BME280;36505;52.512;13.460;2022-12-29T09:22:26;99943.03;;;10.30;75.20
50550;BME280;36505;52.512;13.460;2022-12-29T09:24:51;99942.84;;;10.42;74.36
50550;BME280;36505;52.512;13.460;2022-12-29T09:27:16;99938.75;;;10.45;74.53
50550;BME280;36505;52.512;13.460;2022-12-29T09:29:42;99932.50;;;10.49;74.29
50550;BME280;36505;52.512;13.460;2022-12-29T09:32:07;99936.66;;;10.57;74.07
50550;BME280;36505;52.512;13.460;2022-12-29T09:34:32;99937.50;;;10.57;74.09
50550;BME280;36505;52.512;13.460;2022-12-29T09:36:58;99931.47;;;10.60;73.86
50550;BME280;36505;52.512;13.460;2022-12-29T09:39:23;99925.47;;;10.63;73.93
50550;BME280;36505;52.512;13.460;2022-12-29T09:46:57;99911.56;;;10.70;73.04
50550;BME280;36505;52.512;13.460;2022-12-29T09:51:53;99916.75;;;10.72;73.42
50550;BME280;36505;52.512;13.460;2022-12-29T09:57:21;99912.16;;;10.77;73.25
50550;BME280;36505;52.512;13.460;2022-12-29T09:59:51;99911.91;;;10.84;72.97
50550;BME280;36505;52.512;13.460;2022-12-29T10:02:31;99911.34;;;10.87;73.25
50550;BME280;36505;52.512;13.460;2022-12-29T10:04:57;99915.75;;;10.93;73.05
50550;BME280;36505;52.512;13.460;2022-12-29T10:07:30;99921.28;;;10.98;73.27
50550;BME280;36505;52.512;13.460;2022-12-29T10:10:15;99916.41;;;11.10;72.52
50550;BME280;36505;52.512;13.460;2022-12-29T10:15:46;99917.75;;;11.07;72.84
50550;BME280;36505;52.512;13.460;2022-12-29T10:23:45;99902.13;;;11.08;72.58
50550;BME280;36505;52.512;13.460;2022-12-29T10:26:16;99910.69;;;11.17;72.71
50550;BME280;36505;52.512;13.460;2022-12-29T10:28:47;99904.94;;;11.23;72.31
50550;BME280;36505;52.512;13.460;2022-12-29T10:31:22;99908.25;;;11.25;72.18
50550;BME280;36505;52.512;13.460;2022-12-29T10:33:57;99902.78;;;11.30;71.99
50550;BME280;36505;52.512;13.460;2022-12-29T10:36:33;99906.03;;;11.27;72.04
50550;BME280;36505;52.512;13.460;2022-12-29T10:41:48;99897.88;;;11.37;72.09
50550;BME280;36505;52.512;13.460;2022-12-29T10:44:16;99908.03;;;11.52;71.87
50550;BME280;36505;52.512;13.460;2022-12-29T10:46:43;99902.00;;;11.60;71.14
50550;BME280;36505;52.512;13.460;2022-12-29T10:49:16;99897.91;;;11.68;70.83
50550;BME280;36505;52.512;13.460;2022-12-29T10:51:44;99894.91;;;11.64;70.89
50550;BME280;36505;52.512;13.460;2022-12-29T10:54:31;99905.31;;;11.67;70.41
50550;BME280;36505;52.512;13.460;2022-12-29T10:59:39;99897.66;;;11.69;70.88
50550;BME280;36505;52.512;13.460;2022-12-29T11:07:20;99895.75;;;11.75;70.80
50550;BME280;36505;52.512;13.460;2022-12-29T11:09:46;99894.09;;;11.74;70.83
50550;BME280;36505;52.512;13.460;2022-12-29T11:12:26;99894.91;;;11.69;71.04
50550;BME280;36505;52.512;13.460;2022-12-29T11:17:26;99893.25;;;11.68;71.14
50550;BME280;36505;52.512;13.460;2022-12-29T11:19:51;99899.28;;;11.65;70.76
50550;BME280;36505;52.512;13.460;2022-12-29T11:22:24;99892.16;;;11.59;71.15
50550;BME280;36505;52.512;13.460;2022-12-29T11:24:52;99890.78;;;11.57;71.11
50550;BME280;36505;52.512;13.460;2022-12-29T11:27:26;99897.34;;;11.51;71.42
50550;BME280;36505;52.512;13.460;2022-12-29T11:29:55;99903.91;;;11.49;71.99
50550;BME280;36505;52.512;13.460;2022-12-29T11:32:28;99907.47;;;11.50;72.07
50550;BME280;36505;52.512;13.460;2022-12-29T11:34:55;99905.28;;;11.47;72.30
50550;BME280;36505;52.512;13.460;2022-12-29T11:37:28;99896.50;;;11.45;72.52
50550;BME280;36505;52.512;13.460;2022-12-29T11:39:56;99903.91;;;11.39;73.17
50550;BME280;36505;52.512;13.460;2022-12-29T11:42:33;99903.34;;;11.42;73.73
50550;BME280;36505;52.512;13.460;2022-12-29T11:45:05;99911.00;;;11.40;74.69
50550;BME280;36505;52.512;13.460;2022-12-29T11:47:32;99904.44;;;11.36;75.56
50550;BME280;36505;52.512;13.460;2022-12-29T11:50:00;99912.09;;;11.29;75.89
50550;BME280;36505;52.512;13.460;2022-12-29T11:52:29;99897.56;;;11.29;75.92
50550;BME280;36505;52.512;13.460;2022-12-29T11:54:58;99909.59;;;11.23;75.89
50550;BME280;36505;52.512;13.460;2022-12-29T11:57:26;99897.81;;;11.17;75.92
50550;BME280;36505;52.512;13.460;2022-12-29T11:59:54;99915.91;;;11.23;76.47
50550;BME280;36505;52.512;13.460;2022-12-29T12:05:01;99935.84;;;11.14;77.25
50550;BME280;36505;52.512;13.460;2022-12-29T12:07:44;99937.19;;;11.06;77.54
50550;BME280;36505;52.512;13.460;2022-12-29T12:10:16;99937.72;;;10.98;78.13
50550;BME280;36505;52.512;13.460;2022-12-29T12:13:20;99938.75;;;10.87;79.39
50550;BME280;36505;52.512;13.460;2022-12-29T12:15:54;99906.84;;;10.65;80.98
50550;BME280;36505;52.512;13.460;2022-12-29T12:18:33;99921.34;;;10.61;82.33
50550;BME280;36505;52.512;13.460;2022-12-29T12:29:46;99924.06;;;10.19;85.17
50550;BME280;36505;52.512;13.460;2022-12-29T12:32:44;99927.06;;;10.17;85.55
50550;BME280;36505;52.512;13.460;2022-12-29T12:35:31;99929.22;;;10.15;86.01
50550;BME280;36505;52.512;13.460;2022-12-29T12:38:23;99919.94;;;10.16;86.74
50550;BME280;36505;52.512;13.460;2022-12-29T12:43:45;99917.91;;;10.07;86.75
50550;BME280;36505;52.512;13.460;2022-12-29T13:00:15;99918.66;;;9.97;86.31
50550;BME280;36505;52.512;13.460;2022-12-29T13:03:13;99913.72;;;9.94;86.36
50550;BME280;36505;52.512;13.460;2022-12-29T13:05:55;99924.66;;;9.94;86.59
50550;BME280;36505;52.512;13.460;2022-12-29T13:19:45;99931.91;;;9.83;86.52
50550;BME280;36505;52.512;13.460;2022-12-29T13:22:33;99935.78;;;9.82;86.92
50550;BME280;36505;52.512;13.460;2022-12-29T13:36:02;99938.84;;;9.64;87.85
50550;BME280;36505;52.512;13.460;2022-12-29T13:41:03;99927.81;;;9.54;87.92
50550;BME280;36505;52.512;13.460;2022-12-29T13:43:32;99933.84;;;9.56;88.26
50550;BME280;36505;52.512;13.460;2022-12-29T13:46:04;99937.34;;;9.51;88.59
50550;BME280;36505;52.512;13.460;2022-12-29T13:48:39;99941.94;;;9.46;88.57
50550;BME280;36505;52.512;13.460;2022-12-29T13:51:08;99936.97;;;9.43;89.04
50550;BME280;36505;52.512;13.460;2022-12-29T13:54:01;99933.75;;;9.46;89.05
50550;BME280;36505;52.512;13.460;2022-12-29T13:57:12;99936.16;;;9.42;89.34
50550;BME280;36505;52.512;13.460;2022-12-29T13:59:50;99946.25;;;9.42;89.67
50550;BME280;36505;52.512;13.460;2022-12-29T14:05:15;99945.47;;;9.41;89.70
50550;BME280;36505;52.512;13.460;2022-12-29T14:07:59;99947.66;;;9.44;89.74
50550;BME280;36505;52.512;13.460;2022-12-29T14:10:46;99953.38;;;9.43;89.74
50550;BME280;36505;52.512;13.460;2022-12-29T14:15:42;99959.38;;;9.40;89.65
50550;BME280;36505;52.512;13.460;2022-12-29T14:20:47;99959.28;;;9.35;89.99
50550;BME280;36505;52.512;13.460;2022-12-29T14:23:25;99963.13;;;9.34;90.05
50550;BME280;36505;52.512;13.460;2022-12-29T14:25:59;99968.84;;;9.32;90.18
50550;BME280;36505;52.512;13.460;2022-12-29T14:28:30;99966.94;;;9.33;90.24
50550;BME280;36505;52.512;13.460;2022-12-29T14:30:58;99969.34;;;9.29;90.29
50550;BME280;36505;52.512;13.460;2022-12-29T14:33:26;99965.78;;;9.29;90.25
50550;BME280;36505;52.512;13.460;2022-12-29T14:35:53;99968.44;;;9.24;90.30
50550;BME280;36505;52.512;13.460;2022-12-29T14:38:28;99979.44;;;9.29;90.24
50550;BME280;36505;52.512;13.460;2022-12-29T14:44:19;99990.31;;;9.24;90.07
50550;BME280;36505;52.512;13.460;2022-12-29T14:49:21;99970.50;;;9.11;90.25
50550;BME280;36505;52.512;13.460;2022-12-29T14:51:51;99986.44;;;9.20;90.51
50550;BME280;36505;52.512;13.460;2022-12-29T14:54:34;99989.16;;;9.20;90.29
50550;BME280;36505;52.512;13.460;2022-12-29T14:57:07;99983.72;;;9.20;90.37
50550;BME280;36505;52.512;13.460;2022-12-29T14:59:36;99987.50;;;9.19;89.71
50550;BME280;36505;52.512;13.460;2022-12-29T15:02:04;99997.09;;;9.21;89.86
50550;BME280;36505;52.512;13.460;2022-12-29T15:04:38;99998.19;;;9.20;89.87
50550;BME280;36505;52.512;13.460;2022-12-29T15:07:08;100004.72;;;9.19;89.76
50550;BME280;36505;52.512;13.460;2022-12-29T15:09:36;100008.78;;;9.17;89.46
50550;BME280;36505;52.512;13.460;2022-12-29T15:14:54;100007.06;;;9.10;89.52
50550;BME280;36505;52.512;13.460;2022-12-29T15:19:52;100044.72;;;9.08;89.75
50550;BME280;36505;52.512;13.460;2022-12-29T15:22:17;100065.25;;;9.11;89.56
50550;BME280;36505;52.512;13.460;2022-12-29T15:24:43;100059.84;;;9.16;90.46
50550;BME280;36505;52.512;13.460;2022-12-29T15:27:17;100053.56;;;9.16;91.71
50550;BME280;36505;52.512;13.460;2022-12-29T15:29:45;100046.44;;;9.15;92.03